| time (UTC) | temp C | wind direction | speed KPH | gust KPH | rain 1hr cm | rain 24hr cm | rain mn cm | humidity % | barometer mb |
| 20260507162035 | 14 | 297 | 3.2 | 9.7 | 0.00 | 1.02 | 0.99 | 63 | 1011.9 |
| 20260507161014 | 13 | 280 | 1.6 | 8.0 | 0.00 | 1.02 | 0.99 | 65 | 1011.8 |
| 20260507160013 | 13 | 298 | 8.0 | 12.9 | 0.00 | 1.02 | 0.99 | 62 | 1011.9 |
| 20260507155014 | 15 | 311 | 6.4 | 14.5 | 0.00 | 1.02 | 0.99 | 61 | 1011.9 |
| 20260507154014 | 15 | 313 | 3.2 | 9.7 | 0.00 | 1.02 | 0.99 | 61 | 1012.0 |
| 20260507153013 | 14 | 299 | 3.2 | 11.3 | 0.00 | 1.07 | 0.99 | 60 | 1011.9 |
| 20260507152013 | 14 | 315 | 3.2 | 8.0 | 0.00 | 1.09 | 0.99 | 62 | 1011.9 |
| 20260507151015 | 13 | 298 | 3.2 | 8.0 | 0.00 | 1.17 | 0.99 | 62 | 1011.9 |
| 20260507150015 | 14 | 276 | 6.4 | 14.5 | 0.00 | 1.57 | 0.99 | 63 | 1012.0 |
| 20260507145013 | 14 | 254 | 4.8 | 11.3 | 0.00 | 2.62 | 0.99 | 63 | 1012.0 |
| 20260507144014 | 13 | 274 | 4.8 | 12.9 | 0.00 | 4.06 | 0.99 | 64 | 1012.0 |
| 20260507143015 | 13 | 263 | 4.8 | 9.7 | 0.00 | 5.31 | 0.99 | 66 | 1012.0 |
| 20260507142014 | 13 | 299 | 6.4 | 14.5 | 0.00 | 5.82 | 0.99 | 67 | 1011.9 |
| 20260507141014 | 13 | 295 | 8.0 | 16.1 | 0.00 | 6.22 | 0.99 | 71 | 1012.0 |
| 20260507140013 | 12 | 307 | 8.0 | 12.9 | 0.00 | 6.73 | 0.99 | 77 | 1011.9 |
| 20260507135013 | 12 | 298 | 8.0 | 14.5 | 0.00 | 7.21 | 0.99 | 75 | 1012.0 |
| 20260507134013 | 12 | 290 | 8.0 | 16.1 | 0.00 | 7.24 | 0.99 | 77 | 1012.0 |
| 20260507133015 | 12 | 298 | 8.0 | 16.1 | 0.00 | 7.24 | 0.99 | 73 | 1012.1 |
| 20260507132014 | 15 | 305 | 4.8 | 14.5 | 0.00 | 7.24 | 0.99 | 63 | 1012.4 |
| 20260507131015 | 16 | 298 | 3.2 | 11.3 | 0.00 | 7.24 | 0.99 | 60 | 1012.4 |
| 20260507130015 | 16 | 232 | 1.6 | 11.3 | 0.00 | 7.24 | 0.99 | 60 | 1012.4 |
| 20260507125514 | 16 | 219 | 6.4 | 11.3 | 0.00 | 7.24 | 0.99 | 58 | 1012.4 |
| 20260507124514 | 15 | 230 | 8.0 | 16.1 | 0.00 | 7.24 | 0.99 | 62 | 1012.3 |
| 20260507123514 | 15 | 211 | 8.0 | 17.7 | 0.00 | 7.24 | 0.99 | 63 | 1012.2 |
| 20260507122514 | 13 | 240 | 6.4 | 14.5 | 0.00 | 7.24 | 0.99 | 72 | 1012.1 |
| 20260507121515 | 13 | 259 | 6.4 | 17.7 | 0.00 | 7.24 | 0.99 | 70 | 1012.0 |
| 20260507120535 | 13 | 250 | 8.0 | 16.1 | 0.00 | 7.24 | 0.99 | 67 | 1012.2 |
| 20260507115514 | 13 | 218 | 9.7 | 14.5 | 0.00 | 7.24 | 0.99 | 68 | 1012.2 |
| 20260507114535 | 13 | 241 | 9.7 | 16.1 | 0.00 | 7.24 | 0.99 | 70 | 1012.2 |
| 20260507113535 | 13 | 232 | 8.0 | 17.7 | 0.00 | 7.24 | 0.99 | 69 | 1012.4 |
| 20260507112515 | 13 | 219 | 9.7 | 14.5 | 0.00 | 7.24 | 0.99 | 71 | 1012.4 |
| 20260507111535 | 13 | 205 | 11.3 | 22.5 | 0.00 | 7.24 | 0.99 | 70 | 1012.5 |
| 20260507110515 | 12 | 231 | 8.0 | 16.1 | 0.00 | 7.24 | 0.99 | 77 | 1012.4 |
| 20260507105515 | 12 | 224 | 8.0 | 14.5 | 0.00 | 7.24 | 0.99 | 79 | 1012.4 |
| 20260507104515 | 11 | 227 | 9.7 | 14.5 | 0.00 | 7.24 | 0.99 | 78 | 1012.4 |
| 20260507103515 | 11 | 229 | 8.0 | 14.5 | 0.00 | 7.24 | 0.99 | 79 | 1012.5 |
| 20260507102515 | 11 | 227 | 6.4 | 12.9 | 0.03 | 7.24 | 0.99 | 78 | 1012.4 |
| 20260507101515 | 11 | 223 | 6.4 | 11.3 | 0.03 | 7.24 | 0.99 | 80 | 1012.4 |
| 20260507100515 | 11 | 226 | 8.0 | 12.9 | 0.03 | 7.24 | 0.99 | 80 | 1012.4 |
| 20260507095515 | 11 | 230 | 8.0 | 16.1 | 0.03 | 7.24 | 0.99 | 77 | 1012.4 |
| 20260507094515 | 11 | 223 | 11.3 | 17.7 | 0.03 | 7.24 | 0.99 | 76 | 1012.5 |
| 20260507093515 | 11 | 221 | 8.0 | 14.5 | 0.03 | 7.24 | 0.99 | 77 | 1012.4 |
| 20260507092515 | 10 | 211 | 8.0 | 11.3 | 0.00 | 7.21 | 0.94 | 80 | 1012.2 |
| 20260507091515 | 10 | 214 | 6.4 | 11.3 | 0.00 | 7.21 | 0.94 | 82 | 1012.1 |
| 20260507090535 | 10 | 222 | 8.0 | 14.5 | 0.00 | 7.21 | 0.94 | 82 | 1012.1 |
| 20260507085515 | 10 | 222 | 9.7 | 16.1 | 0.00 | 7.21 | 0.94 | 82 | 1012.0 |
| 20260507084515 | 9 | 216 | 9.7 | 16.1 | 0.00 | 7.21 | 0.94 | 83 | 1011.9 |
| 20260507083535 | 8 | 222 | 6.4 | 12.9 | 0.00 | 7.21 | 0.94 | 84 | 1011.8 |
| 20260507082515 | 8 | 226 | 3.2 | 8.0 | 0.00 | 7.21 | 0.94 | 87 | 1011.7 |
| 20260507081515 | 8 | 218 | 6.4 | 14.5 | 0.00 | 7.21 | 0.94 | 88 | 1011.7 |
| 20260507080515 | 8 | 233 | 8.0 | 16.1 | 0.00 | 7.21 | 0.94 | 89 | 1011.7 |
| 20260507075535 | 8 | 226 | 8.0 | 16.1 | 0.00 | 7.21 | 0.94 | 92 | 1011.6 |
| 20260507074515 | 7 | 216 | 8.0 | 16.1 | 0.00 | 7.21 | 0.94 | 93 | 1011.5 |
| 20260507073515 | 7 | 224 | 8.0 | 14.5 | 0.00 | 7.21 | 0.94 | 95 | 1011.5 |
| 20260507072515 | 7 | 226 | 8.0 | 14.5 | 0.00 | 7.21 | 0.94 | 95 | 1011.3 |
| 20260507071515 | 7 | 234 | 11.3 | 19.3 | 0.00 | 7.21 | 0.94 | 94 | 1011.2 |
| 20260507070515 | 7 | 221 | 9.7 | 19.3 | 0.05 | 7.21 | 0.94 | 92 | 1011.1 |
| 20260507065515 | 7 | 224 | 8.0 | 14.5 | 0.10 | 7.21 | 0.94 | 91 | 1011.0 |
| 20260507064515 | 7 | 222 | 9.7 | 16.1 | 0.15 | 7.21 | 0.94 | 90 | 1010.9 |
| 20260507063515 | 7 | 221 | 11.3 | 22.5 | 0.23 | 7.21 | 0.94 | 89 | 1010.9 |
| 20260507062515 | 7 | 226 | 9.7 | 14.5 | 0.25 | 7.21 | 0.94 | 89 | 1010.9 |
| 20260507061516 | 7 | 229 | 11.3 | 19.3 | 0.36 | 7.21 | 0.94 | 87 | 1010.7 |
| 20260507060515 | 7 | 217 | 9.7 | 22.5 | 0.46 | 7.14 | 0.86 | 86 | 1010.7 |
| 20260507055535 | 6 | 224 | 12.9 | 22.5 | 0.66 | 7.09 | 0.81 | 86 | 1010.6 |
| 20260507054515 | 6 | 229 | 8.0 | 19.3 | 0.74 | 7.06 | 0.79 | 87 | 1010.5 |
| 20260507053515 | 6 | 216 | 12.9 | 20.9 | 0.66 | 6.99 | 0.71 | 88 | 1010.3 |
| 20260507052535 | 6 | 230 | 11.3 | 19.3 | 0.64 | 6.93 | 0.66 | 87 | 1010.2 |
| 20260507051515 | 6 | 223 | 11.3 | 17.7 | 0.53 | 6.86 | 0.58 | 89 | 1010.1 |
| 20260507050515 | 6 | 223 | 11.3 | 19.3 | 0.38 | 6.65 | 0.38 | 89 | 1010.0 |
| 20260507045535 | 6 | 223 | 11.3 | 19.3 | 0.15 | 6.43 | 0.15 | 94 | 1009.9 |
| 20260507044516 | 6 | 219 | 12.9 | 20.9 | 0.03 | 6.30 | 0.03 | 95 | 1009.8 |
| 20260507043515 | 6 | 213 | 12.9 | 20.9 | 0.03 | 6.30 | 0.03 | 95 | 1009.7 |
| 20260507042515 | 6 | 212 | 11.3 | 20.9 | 0.03 | 6.30 | 0.03 | 95 | 1009.6 |
| 20260507041515 | 6 | 212 | 12.9 | 20.9 | 0.03 | 6.30 | 0.03 | 95 | 1009.4 |
| 20260507040516 | 6 | 216 | 12.9 | 20.9 | 0.00 | 6.25 | 0.00 | 95 | 1009.3 |
| 20260507035515 | 6 | 217 | 12.9 | 19.3 | 0.00 | 6.25 | 0.00 | 95 | 1009.2 |
| 20260507034515 | 6 | 219 | 12.9 | 24.1 | 0.00 | 6.25 | 0.00 | 95 | 1009.3 |
| 20260507033515 | 6 | 218 | 14.5 | 22.5 | 0.00 | 6.25 | 0.00 | 95 | 1009.2 |
| 20260507032535 | 6 | 206 | 16.1 | 22.5 | 0.00 | 6.25 | 0.00 | 95 | 1009.2 |
| 20260507031515 | 6 | 212 | 14.5 | 25.7 | 0.00 | 6.25 | 0.00 | 95 | 1009.1 |
| 20260507030516 | 6 | 216 | 14.5 | 25.7 | 0.00 | 6.25 | 0.00 | 95 | 1009.1 |
| 20260507025515 | 6 | 212 | 12.9 | 22.5 | 0.00 | 6.25 | 0.00 | 94 | 1009.0 |
| 20260507024535 | 6 | 214 | 14.5 | 29.0 | 0.00 | 6.25 | 0.00 | 94 | 1009.1 |
| 20260507023535 | 6 | 223 | 11.3 | 20.9 | 0.00 | 6.25 | 0.00 | 94 | 1009.1 |
| 20260507022515 | 6 | 222 | 12.9 | 24.1 | 0.00 | 6.25 | 0.00 | 94 | 1009.0 |
| 20260507021515 | 6 | 216 | 12.9 | 22.5 | 0.00 | 6.25 | 0.00 | 95 | 1009.0 |
| 20260507020515 | 6 | 216 | 12.9 | 19.3 | 0.00 | 6.25 | 0.00 | 95 | 1009.0 |
| 20260507015515 | 6 | 222 | 11.3 | 20.9 | 0.00 | 6.25 | 0.00 | 95 | 1009.0 |
| 20260507014515 | 6 | 212 | 12.9 | 27.4 | 0.00 | 6.25 | 0.00 | 94 | 1009.0 |
| 20260507013515 | 7 | 213 | 11.3 | 16.1 | 0.00 | 6.25 | 0.00 | 94 | 1008.9 |
| 20260507012515 | 7 | 207 | 11.3 | 16.1 | 0.00 | 6.25 | 0.00 | 94 | 1009.0 |
| 20260507011515 | 7 | 213 | 11.3 | 19.3 | 0.00 | 6.25 | 0.00 | 94 | 1008.9 |
| 20260507010516 | 7 | 213 | 12.9 | 20.9 | 0.00 | 6.25 | 0.00 | 95 | 1008.8 |
| 20260507005534 | 7 | 212 | 11.3 | 25.7 | 0.00 | 6.25 | 0.00 | 95 | 1008.9 |
| 20260507004513 | 7 | 215 | 11.3 | 19.3 | 0.00 | 6.25 | 0.00 | 95 | 1008.8 |
| 20260507003513 | 7 | 213 | 11.3 | 24.1 | 0.00 | 6.25 | 0.00 | 95 | 1008.7 |
| 20260507002515 | 7 | 212 | 11.3 | 20.9 | 0.00 | 6.25 | 0.00 | 95 | 1008.6 |
| 20260507001513 | 7 | 211 | 12.9 | 20.9 | 0.00 | 6.25 | 0.00 | 95 | 1008.5 |
| 20260507000513 | 7 | 206 | 12.9 | 19.3 | 0.00 | 6.25 | 0.00 | 95 | 1008.6 |
| 20260506235513 | 7 | 206 | 11.3 | 19.3 | 0.00 | 6.25 | 0.00 | 95 | 1008.6 |
| 20260506234514 | 7 | 202 | 12.9 | 22.5 | 0.00 | 6.25 | 0.00 | 95 | 1008.6 |
| 20260506233514 | 7 | 208 | 9.7 | 14.5 | 0.00 | 6.25 | 0.00 | 95 | 1008.6 |
| 20260506232514 | 7 | 221 | 9.7 | 16.1 | 0.00 | 6.25 | 0.00 | 95 | 1008.4 |
| 20260506231513 | 7 | 217 | 11.3 | 19.3 | 0.00 | 6.25 | 0.00 | 95 | 1008.5 |
| 20260506230533 | 7 | 219 | 9.7 | 14.5 | 0.00 | 6.25 | 0.00 | 95 | 1008.5 |
| 20260506225534 | 7 | 217 | 9.7 | 19.3 | 0.00 | 6.25 | 0.00 | 95 | 1008.6 |
| 20260506224513 | 7 | 209 | 9.7 | 19.3 | 0.00 | 6.25 | 0.00 | 95 | 1008.6 |
| 20260506223513 | 7 | 204 | 8.0 | 17.7 | 0.00 | 6.25 | 0.00 | 95 | 1008.6 |
| 20260506222513 | 7 | 211 | 9.7 | 14.5 | 0.00 | 6.25 | 0.00 | 95 | 1008.4 |
| 20260506221533 | 7 | 215 | 11.3 | 19.3 | 0.00 | 6.25 | 0.00 | 95 | 1008.2 |
| 20260506220513 | 7 | 214 | 11.3 | 19.3 | 0.00 | 6.25 | 0.00 | 94 | 1008.2 |
| 20260506215533 | 7 | 214 | 12.9 | 19.3 | 0.00 | 6.25 | 6.25 | 94 | 1008.1 |
| 20260506214514 | 7 | 228 | 9.7 | 20.9 | 0.00 | 6.25 | 6.25 | 94 | 1008.1 |
| 20260506213514 | 7 | 222 | 9.7 | 20.9 | 0.00 | 6.25 | 6.25 | 94 | 1008.2 |
| 20260506212514 | 7 | 216 | 11.3 | 20.9 | 0.00 | 6.25 | 6.25 | 94 | 1008.1 |
| 20260506211513 | 7 | 223 | 11.3 | 22.5 | 0.00 | 6.25 | 6.25 | 94 | 1008.2 |
| 20260506210513 | 7 | 218 | 12.9 | 20.9 | 0.00 | 6.25 | 6.25 | 94 | 1008.2 |
| 20260506205514 | 7 | 214 | 11.3 | 19.3 | 0.00 | 6.25 | 6.25 | 94 | 1008.1 |
| 20260506204514 | 7 | 213 | 11.3 | 17.7 | 0.03 | 6.25 | 6.25 | 95 | 1008.1 |
| 20260506203514 | 7 | 212 | 11.3 | 17.7 | 0.03 | 6.25 | 6.25 | 95 | 1008.0 |
| 20260506202513 | 7 | 215 | 9.7 | 19.3 | 0.03 | 6.25 | 6.25 | 94 | 1008.0 |
| 20260506201513 | 7 | 221 | 11.3 | 22.5 | 0.03 | 6.25 | 6.25 | 94 | 1008.0 |
| 20260506200514 | 7 | 226 | 9.7 | 17.7 | 0.03 | 6.25 | 6.25 | 94 | 1007.9 |
| 20260506195513 | 7 | 223 | 11.3 | 17.7 | 0.03 | 6.25 | 6.25 | 93 | 1007.8 |
| 20260506194513 | 7 | 221 | 11.3 | 19.3 | 0.00 | 6.22 | 6.22 | 93 | 1007.8 |
| 20260506193514 | 7 | 219 | 11.3 | 19.3 | 0.00 | 6.22 | 6.22 | 93 | 1007.6 |
| 20260506192534 | 7 | 225 | 12.9 | 19.3 | 0.00 | 6.22 | 6.22 | 93 | 1007.5 |
| 20260506191515 | 7 | 228 | 11.3 | 22.5 | 0.00 | 6.22 | 6.22 | 93 | 1007.4 |
| 20260506190514 | 7 | 223 | 11.3 | 20.9 | 0.00 | 6.22 | 6.22 | 92 | 1007.3 |
| 20260506185513 | 7 | 222 | 12.9 | 22.5 | 0.00 | 6.22 | 6.22 | 92 | 1007.1 |
| 20260506184513 | 8 | 225 | 11.3 | 25.7 | 0.00 | 6.22 | 6.22 | 92 | 1007.0 |
| 20260506183514 | 8 | 227 | 12.9 | 24.1 | 0.00 | 6.22 | 6.22 | 92 | 1006.8 |
| 20260506182514 | 8 | 222 | 12.9 | 20.9 | 0.00 | 6.22 | 6.22 | 92 | 1006.8 |
| 20260506181534 | 8 | 221 | 11.3 | 24.1 | 0.00 | 6.22 | 6.22 | 92 | 1006.9 |
| 20260506180514 | 8 | 217 | 11.3 | 22.5 | 0.00 | 6.22 | 6.22 | 92 | 1006.8 |
| 20260506175535 | 8 | 216 | 12.9 | 24.1 | 0.00 | 6.22 | 6.22 | 92 | 1006.7 |
| 20260506174513 | 8 | 218 | 11.3 | 24.1 | 0.00 | 6.22 | 6.22 | 91 | 1006.6 |
| 20260506173513 | 8 | 223 | 11.3 | 20.9 | 0.00 | 6.22 | 6.22 | 92 | 1006.6 |
| 20260506172513 | 8 | 210 | 11.3 | 19.3 | 0.00 | 6.22 | 6.22 | 90 | 1006.5 |
| 20260506171513 | 8 | 209 | 11.3 | 19.3 | 0.00 | 6.22 | 6.22 | 90 | 1006.2 |
| 20260506170513 | 8 | 223 | 12.9 | 20.9 | 0.00 | 6.22 | 6.22 | 90 | 1006.1 |
| 20260506165513 | 8 | 229 | 11.3 | 20.9 | 0.00 | 6.22 | 6.22 | 89 | 1006.1 |
| 20260506164513 | 8 | 218 | 16.1 | 33.8 | 0.00 | 6.22 | 6.22 | 89 | 1005.9 |
| 20260506163513 | 8 | 229 | 14.5 | 25.7 | 0.00 | 6.22 | 6.22 | 90 | 1005.9 |
| 20260506162513 | 8 | 226 | 16.1 | 29.0 | 0.03 | 6.22 | 6.22 | 92 | 1005.7 |